Terminal Aerodrome Forecast
Issued by NWS

Home | Current Version | Previous Version | Text Only | Print | Product List | Glossary On
Versions: 1 2 3 4 5 6 7 8 9 10 11 12 13
000
FTUS42 KTBW 171135
TAFPIE
TAF
KPIE 171135Z 1712/1812 VRB03KT P6SM VCSH FEW030 SCT250
     FM171400 03006KT P6SM VCTS SCT030CB SCT080 BKN250
     FM171800 31007KT P6SM VCTS FEW040CB BKN060
     FM180200 VRB03KT P6SM SCT050 BKN250=

USA.gov is the U.S. government's official web portal to all federal, state and local government web resources and services.